Time;durP1;ratioP1;P1;durP2;ratioP2;P2;SDS_P1;SDS_P2;PMS_P1;PMS_P2;Temp;Humidity;BMP_temperature;BMP_pressure;BME280_temperature;BME280_humidity;BME280_pressure;Samples;Min_cycle;Max_cycle;Signal;HPM_P1;HPM_P2
2024/03/07 00:00:19;;;;;;;16.90;8.60;;;;;;;;;;4968510;28;20042;-78
2024/03/07 00:02:47;;;;;;;16.88;8.68;;;;;;;;;;4979737;28;20094;-78
2024/03/07 00:05:14;;;;;;;16.50;8.27;;;;;;;;;;4956744;28;20086;-78
2024/03/07 00:07:39;;;;;;;12.90;7.63;;;;;;;;;;4947970;28;20041;-78
2024/03/07 00:10:07;;;;;;;25.52;10.40;;;;;;;;;;4975449;28;20042;-78
2024/03/07 00:12:35;;;;;;;16.55;8.23;;;;;;;;;;4957242;28;20262;-78
2024/03/07 00:15:01;;;;;;;7.07;3.80;;;;;;;;;;4968920;28;20038;-77
2024/03/07 00:17:26;;;;;;;16.27;8.45;;;;;;;;;;4975790;28;20035;-77
2024/03/07 00:19:52;;;;;;;18.40;8.68;;;;;;;;;;4975809;28;20043;-77
2024/03/07 00:22:17;;;;;;;14.73;8.27;;;;;;;;;;4947783;28;20137;-77
2024/03/07 00:24:42;;;;;;;13.65;7.65;;;;;;;;;;4968748;28;20054;-79
2024/03/07 00:27:08;;;;;;;15.27;8.30;;;;;;;;;;4966924;28;20659;-78
2024/03/07 00:29:37;;;;;;;14.95;8.02;;;;;;;;;;4967649;28;20046;-78
2024/03/07 00:32:03;;;;;;;16.02;8.00;;;;;;;;;;4973762;28;20042;-77
2024/03/07 00:34:28;;;;;;;15.32;7.80;;;;;;;;;;4982702;28;20034;-77
2024/03/07 00:36:56;;;;;;;16.33;8.55;;;;;;;;;;4986911;28;20042;-77
2024/03/07 00:39:21;;;;;;;14.23;7.68;;;;;;;;;;4946549;28;20786;-78
2024/03/07 00:41:47;;;;;;;13.70;7.72;;;;;;;;;;4971851;28;20039;-78
2024/03/07 00:44:12;;;;;;;15.18;7.80;;;;;;;;;;4979830;28;20037;-78
2024/03/07 00:46:38;;;;;;;16.88;7.85;;;;;;;;;;4989506;28;20042;-77
2024/03/07 00:49:05;;;;;;;16.48;7.97;;;;;;;;;;4971920;28;20042;-78
2024/03/07 00:51:30;;;;;;;13.88;8.13;;;;;;;;;;4983745;28;20046;-78
2024/03/07 00:53:55;;;;;;;17.23;8.57;;;;;;;;;;4976098;28;20147;-78
2024/03/07 00:56:21;;;;;;;16.65;7.03;;;;;;;;;;4969667;28;20822;-78
2024/03/07 00:58:50;;;;;;;14.57;7.90;;;;;;;;;;4974989;28;20039;-78
2024/03/07 01:01:18;;;;;;;16.73;7.85;;;;;;;;;;4977627;28;20050;-78
2024/03/07 01:03:44;;;;;;;14.15;7.18;;;;;;;;;;4966854;28;20049;-78
2024/03/07 01:06:12;;;;;;;14.18;8.10;;;;;;;;;;4980070;28;20037;-78
2024/03/07 01:08:38;;;;;;;17.13;8.23;;;;;;;;;;4968368;28;20042;-77
2024/03/07 01:11:09;;;;;;;15.77;7.57;;;;;;;;;;4985166;28;20860;-77
2024/03/07 01:13:43;;;;;;;16.23;7.47;;;;;;;;;;4967559;28;20039;-78
2024/03/07 01:16:09;;;;;;;20.83;9.02;;;;;;;;;;4968399;28;20053;-77
2024/03/07 01:18:35;;;;;;;18.00;9.57;;;;;;;;;;4986001;28;20050;-78
2024/03/07 01:21:04;;;;;;;18.00;8.10;;;;;;;;;;4987490;28;20077;-78
2024/03/07 01:23:31;;;;;;;16.45;8.85;;;;;;;;;;4979515;28;20121;-78
2024/03/07 01:25:57;;;;;;;18.02;8.68;;;;;;;;;;4960910;28;20035;-78
2024/03/07 01:28:24;;;;;;;18.70;9.75;;;;;;;;;;4955973;28;20105;-78
2024/03/07 01:30:50;;;;;;;20.60;9.85;;;;;;;;;;4969158;28;20123;-77
2024/03/07 01:33:16;;;;;;;16.55;9.30;;;;;;;;;;4958313;28;20034;-79
2024/03/07 01:35:41;;;;;;;20.67;9.70;;;;;;;;;;4974192;28;20633;-79
2024/03/07 01:38:08;;;;;;;17.77;8.82;;;;;;;;;;4972974;28;20042;-77
2024/03/07 01:40:34;;;;;;;19.38;9.75;;;;;;;;;;4959408;28;20046;-78
2024/03/07 01:43:01;;;;;;;17.05;8.45;;;;;;;;;;4971480;28;20038;-78
2024/03/07 01:45:27;;;;;;;16.80;7.82;;;;;;;;;;4952839;28;20042;-78
2024/03/07 01:47:52;;;;;;;19.08;8.77;;;;;;;;;;4964754;28;20098;-79
2024/03/07 01:50:18;;;;;;;20.42;9.88;;;;;;;;;;4958475;28;20034;-79
2024/03/07 01:52:44;;;;;;;18.67;8.77;;;;;;;;;;4979536;28;20089;-79
2024/03/07 01:55:13;;;;;;;16.08;9.02;;;;;;;;;;4980569;28;20066;-79
2024/03/07 01:57:38;;;;;;;18.55;8.98;;;;;;;;;;4971542;28;20050;-78
2024/03/07 02:00:06;;;;;;;16.58;9.07;;;;;;;;;;4961288;28;21027;-78
2024/03/07 02:02:32;;;;;;;18.23;8.60;;;;;;;;;;4935937;28;20053;-79
2024/03/07 02:04:58;;;;;;;16.52;8.77;;;;;;;;;;4961485;28;20107;-79
2024/03/07 02:07:23;;;;;;;16.63;8.90;;;;;;;;;;4978649;28;20057;-78
2024/03/07 02:09:49;;;;;;;15.80;8.68;;;;;;;;;;4972994;28;20189;-78
2024/03/07 02:12:14;;;;;;;17.70;8.63;;;;;;;;;;4965563;28;20550;-79
2024/03/07 02:14:39;;;;;;;17.27;8.23;;;;;;;;;;4973743;28;20125;-78
2024/03/07 02:17:06;;;;;;;16.02;8.68;;;;;;;;;;4965915;28;20049;-79
2024/03/07 02:19:32;;;;;;;19.30;8.95;;;;;;;;;;4936699;28;20050;-80
2024/03/07 02:21:58;;;;;;;16.50;7.53;;;;;;;;;;4967030;28;20065;-77
2024/03/07 02:24:24;;;;;;;15.13;8.32;;;;;;;;;;4960274;28;20034;-79
2024/03/07 02:26:49;;;;;;;15.75;8.30;;;;;;;;;;4952033;28;20130;-79
2024/03/07 02:29:15;;;;;;;17.88;8.55;;;;;;;;;;4959252;28;20046;-78
2024/03/07 02:31:41;;;;;;;16.83;8.27;;;;;;;;;;4950177;28;20202;-79
2024/03/07 02:34:07;;;;;;;17.02;9.23;;;;;;;;;;4951572;28;20055;-78
2024/03/07 02:36:33;;;;;;;20.25;8.82;;;;;;;;;;4939684;28;20519;-79
2024/03/07 02:38:59;;;;;;;17.33;8.32;;;;;;;;;;4955121;28;20068;-78
2024/03/07 02:41:25;;;;;;;16.83;8.45;;;;;;;;;;4968478;28;20149;-79
2024/03/07 02:43:51;;;;;;;8.55;5.28;;;;;;;;;;4964062;28;20612;-79
2024/03/07 02:46:16;;;;;;;14.32;8.18;;;;;;;;;;4966946;28;20042;-80
2024/03/07 02:48:42;;;;;;;18.02;8.73;;;;;;;;;;4960470;28;20046;-79
2024/03/07 02:51:07;;;;;;;10.27;5.72;;;;;;;;;;4972800;28;20133;-78
2024/03/07 02:53:32;;;;;;;18.58;8.38;;;;;;;;;;4921053;28;20056;-79
2024/03/07 02:55:58;;;;;;;17.23;8.13;;;;;;;;;;4971295;28;20041;-79
2024/03/07 02:58:24;;;;;;;17.95;8.35;;;;;;;;;;4971859;28;20037;-79
2024/03/07 03:00:57;;;;;;;18.30;8.38;;;;;;;;;;4967949;28;20101;-79
2024/03/07 03:03:22;;;;;;;18.08;7.95;;;;;;;;;;4971933;28;20072;-79
2024/03/07 03:05:48;;;;;;;13.35;6.18;;;;;;;;;;4959429;28;20523;-79
2024/03/07 03:08:13;;;;;;;20.42;9.15;;;;;;;;;;4964602;28;20042;-79
2024/03/07 03:10:39;;;;;;;8.48;4.50;;;;;;;;;;4965910;28;20035;-78
2024/03/07 03:13:05;;;;;;;17.83;7.78;;;;;;;;;;4960918;28;20035;-78
2024/03/07 03:15:31;;;;;;;17.55;8.07;;;;;;;;;;4971155;28;20061;-78
2024/03/07 03:17:59;;;;;;;10.07;5.55;;;;;;;;;;4967414;28;20062;-78
2024/03/07 03:20:25;;;;;;;14.07;5.70;;;;;;;;;;4978339;28;20041;-78
2024/03/07 03:22:52;;;;;;;7.13;3.63;;;;;;;;;;4970842;28;20045;-79
2024/03/07 03:25:18;;;;;;;8.00;2.80;;;;;;;;;;4942961;28;20064;-78
2024/03/07 03:27:43;;;;;;;10.65;5.80;;;;;;;;;;4966540;28;20066;-79
2024/03/07 03:30:13;;;;;;;8.35;4.95;;;;;;;;;;4958076;28;20058;-78
2024/03/07 03:32:39;;;;;;;12.65;5.47;;;;;;;;;;4971791;28;20169;-79
2024/03/07 03:35:05;;;;;;;11.18;6.05;;;;;;;;;;4960415;28;20071;-78
2024/03/07 03:37:32;;;;;;;13.32;6.82;;;;;;;;;;4958920;28;20137;-79
2024/03/07 03:39:57;;;;;;;19.35;8.73;;;;;;;;;;4951751;28;20146;-78
2024/03/07 03:42:22;;;;;;;13.63;6.68;;;;;;;;;;4957566;28;20641;-78
2024/03/07 03:44:48;;;;;;;17.23;7.95;;;;;;;;;;4944694;28;20042;-78
2024/03/07 03:47:13;;;;;;;19.17;8.30;;;;;;;;;;4963318;28;20050;-78
2024/03/07 03:49:39;;;;;;;17.75;8.43;;;;;;;;;;4956139;28;20516;-79
2024/03/07 03:52:04;;;;;;;18.55;8.55;;;;;;;;;;4972790;28;20089;-79
2024/03/07 03:54:30;;;;;;;24.35;9.75;;;;;;;;;;4971135;28;20039;-77
2024/03/07 03:56:55;;;;;;;6.90;4.05;;;;;;;;;;4969223;28;20239;-76
2024/03/07 03:59:20;;;;;;;21.15;9.57;;;;;;;;;;4954079;28;20037;-78
2024/03/07 04:01:46;;;;;;;18.67;9.95;;;;;;;;;;4972814;28;20045;-78
2024/03/07 04:04:11;;;;;;;19.20;9.60;;;;;;;;;;4971029;28;20263;-78
2024/03/07 04:06:37;;;;;;;14.10;6.80;;;;;;;;;;4975121;28;20117;-78
2024/03/07 04:09:04;;;;;;;21.23;10.63;;;;;;;;;;4965311;28;20049;-78
2024/03/07 04:11:29;;;;;;;19.98;10.43;;;;;;;;;;4971054;28;20038;-78
2024/03/07 04:13:55;;;;;;;23.27;11.43;;;;;;;;;;4959144;28;20068;-78
2024/03/07 04:16:21;;;;;;;13.00;7.15;;;;;;;;;;4944015;28;20065;-78
2024/03/07 04:18:46;;;;;;;21.15;10.60;;;;;;;;;;4956479;28;20035;-78
2024/03/07 04:21:12;;;;;;;23.42;10.38;;;;;;;;;;4946772;28;20122;-78
2024/03/07 04:23:40;;;;;;;22.40;11.45;;;;;;;;;;4940082;28;20212;-78
2024/03/07 04:26:05;;;;;;;22.20;9.95;;;;;;;;;;4968248;28;20093;-79
2024/03/07 04:28:31;;;;;;;21.95;10.43;;;;;;;;;;4960226;28;20035;-78
2024/03/07 04:30:56;;;;;;;23.60;10.63;;;;;;;;;;4966472;28;20038;-78
2024/03/07 04:33:21;;;;;;;23.05;10.52;;;;;;;;;;4943181;28;20057;-78
2024/03/07 04:35:47;;;;;;;22.80;10.25;;;;;;;;;;4973183;28;20067;-79
2024/03/07 04:38:14;;;;;;;21.65;10.25;;;;;;;;;;4955557;28;20035;-79
2024/03/07 04:40:42;;;;;;;20.67;10.50;;;;;;;;;;4976327;28;20104;-79
2024/03/07 04:43:07;;;;;;;23.10;11.18;;;;;;;;;;4961243;28;20130;-79
2024/03/07 04:45:33;;;;;;;23.23;11.43;;;;;;;;;;4978192;28;20226;-78
2024/03/07 04:47:59;;;;;;;23.25;11.18;;;;;;;;;;4982823;28;20050;-78
2024/03/07 04:50:26;;;;;;;24.30;11.18;;;;;;;;;;4953781;28;20413;-79
2024/03/07 04:52:52;;;;;;;28.98;11.82;;;;;;;;;;4966577;28;20062;-78
2024/03/07 04:55:18;;;;;;;29.90;11.88;;;;;;;;;;4975888;28;20080;-79
2024/03/07 04:57:43;;;;;;;18.35;9.10;;;;;;;;;;4976672;28;20034;-78
2024/03/07 05:00:14;;;;;;;25.83;11.25;;;;;;;;;;4977118;28;20045;-77
2024/03/07 05:02:40;;;;;;;28.03;11.73;;;;;;;;;;4952789;28;20089;-77
2024/03/07 05:05:06;;;;;;;19.95;8.80;;;;;;;;;;4966063;28;20038;-77
2024/03/07 05:07:31;;;;;;;27.15;11.32;;;;;;;;;;4936060;28;20039;-78
2024/03/07 05:09:56;;;;;;;22.38;11.52;;;;;;;;;;4964264;28;20069;-78
2024/03/07 05:12:22;;;;;;;26.85;11.70;;;;;;;;;;4968807;28;20055;-78
2024/03/07 05:14:47;;;;;;;23.65;12.10;;;;;;;;;;4975994;28;20035;-77
2024/03/07 05:17:13;;;;;;;21.55;10.98;;;;;;;;;;4957591;28;20141;-78
2024/03/07 05:19:38;;;;;;;25.00;11.75;;;;;;;;;;4952339;28;20066;-78
2024/03/07 05:22:06;;;;;;;19.73;9.57;;;;;;;;;;4966494;28;20034;-78
2024/03/07 05:24:33;;;;;;;29.25;12.48;;;;;;;;;;4946714;28;20114;-78
2024/03/07 05:26:59;;;;;;;25.63;11.95;;;;;;;;;;4978746;28;20043;-78
2024/03/07 05:29:24;;;;;;;26.65;12.15;;;;;;;;;;4954980;28;20034;-77
2024/03/07 05:31:50;;;;;;;22.83;9.05;;;;;;;;;;4970305;28;20097;-78
2024/03/07 05:34:18;;;;;;;20.95;8.98;;;;;;;;;;4977140;28;20062;-77
2024/03/07 05:36:47;;;;;;;23.88;10.00;;;;;;;;;;4960599;28;20050;-79
2024/03/07 05:39:14;;;;;;;31.70;11.90;;;;;;;;;;4961691;28;20519;-78
2024/03/07 05:41:41;;;;;;;25.17;10.90;;;;;;;;;;4951332;28;20088;-78
2024/03/07 05:44:09;;;;;;;33.80;11.70;;;;;;;;;;4980592;28;20286;-79
2024/03/07 05:46:45;;;;;;;48.28;17.58;;;;;;;;;;4978923;28;20050;-78
2024/03/07 05:49:11;;;;;;;42.08;14.40;;;;;;;;;;4975891;28;20126;-78
2024/03/07 05:51:37;;;;;;;27.77;11.90;;;;;;;;;;4947342;28;20066;-78
2024/03/07 05:54:06;;;;;;;40.97;17.15;;;;;;;;;;4955984;28;20030;-78
2024/03/07 05:56:38;;;;;;;37.63;15.52;;;;;;;;;;4931484;28;20813;-78
2024/03/07 05:59:04;;;;;;;27.45;12.35;;;;;;;;;;4975806;28;20038;-78
2024/03/07 06:01:34;;;;;;;24.55;12.20;;;;;;;;;;4971894;28;20050;-78
2024/03/07 06:04:05;;;;;;;27.20;12.02;;;;;;;;;;4971408;28;20049;-78
2024/03/07 06:06:32;;;;;;;25.75;11.50;;;;;;;;;;4965429;28;20102;-78
2024/03/07 06:08:59;;;;;;;22.75;10.98;;;;;;;;;;4975768;28;20072;-77
2024/03/07 06:11:25;;;;;;;22.02;11.85;;;;;;;;;;4955206;28;20488;-77
2024/03/07 06:13:51;;;;;;;26.98;12.90;;;;;;;;;;4979524;28;20125;-77
2024/03/07 06:16:17;;;;;;;25.83;12.20;;;;;;;;;;4969379;28;20133;-77
2024/03/07 06:18:46;;;;;;;25.40;11.63;;;;;;;;;;4945399;28;20712;-76
2024/03/07 06:21:11;;;;;;;13.70;6.43;;;;;;;;;;4966206;28;20055;-79
2024/03/07 06:23:37;;;;;;;25.67;12.10;;;;;;;;;;4967965;28;20114;-78
2024/03/07 06:26:12;;;;;;;26.33;12.57;;;;;;;;;;4982617;28;20048;-78
2024/03/07 06:28:37;;;;;;;24.23;11.57;;;;;;;;;;4922319;28;20106;-78
2024/03/07 06:31:07;;;;;;;23.00;11.38;;;;;;;;;;4964512;28;20070;-78
2024/03/07 06:33:33;;;;;;;24.33;10.68;;;;;;;;;;4954188;28;20932;-78
2024/03/07 06:35:58;;;;;;;22.85;10.15;;;;;;;;;;4967454;28;20047;-77
2024/03/07 06:38:24;;;;;;;22.65;10.57;;;;;;;;;;4966079;28;20030;-77
2024/03/07 06:40:49;;;;;;;20.27;10.35;;;;;;;;;;4954135;28;20046;-77
2024/03/07 06:43:15;;;;;;;19.48;10.27;;;;;;;;;;4958338;28;20042;-77
2024/03/07 06:45:41;;;;;;;21.27;10.60;;;;;;;;;;4950155;28;20047;-77
2024/03/07 06:48:07;;;;;;;18.83;9.32;;;;;;;;;;4971844;28;20113;-78
2024/03/07 06:50:36;;;;;;;20.88;10.23;;;;;;;;;;4975212;28;20067;-78
2024/03/07 06:53:03;;;;;;;19.45;9.80;;;;;;;;;;4953581;28;20467;-77
2024/03/07 06:55:29;;;;;;;22.15;10.20;;;;;;;;;;4968535;28;20097;-78
2024/03/07 06:57:54;;;;;;;24.45;11.00;;;;;;;;;;4967467;28;20057;-77
2024/03/07 07:00:20;;;;;;;21.10;10.57;;;;;;;;;;4941110;28;20042;-77
2024/03/07 07:02:47;;;;;;;21.75;11.25;;;;;;;;;;4969152;28;20038;-78
2024/03/07 07:05:15;;;;;;;23.60;11.55;;;;;;;;;;4957075;28;20603;-78
2024/03/07 07:07:46;;;;;;;11.93;6.45;;;;;;;;;;4949239;28;20054;-77
2024/03/07 07:10:17;;;;;;;21.85;10.73;;;;;;;;;;4975517;28;20049;-77
2024/03/07 07:12:46;;;;;;;;;;;;;;;;;;4958745;28;20590;-78
2024/03/07 07:15:13;;;;;;;22.60;10.90;;;;;;;;;;4951795;28;20442;-78
2024/03/07 07:17:38;;;;;;;21.35;10.90;;;;;;;;;;4964941;28;20072;-78
2024/03/07 07:20:10;;;;;;;20.58;9.68;;;;;;;;;;4963428;28;20038;-77
2024/03/07 07:22:35;;;;;;;;;;;;;;;;;;4967431;28;20100;-77
2024/03/07 07:25:01;;;;;;;29.58;12.68;;;;;;;;;;4955595;28;19937;-77
2024/03/07 07:27:26;;;;;;;53.72;23.17;;;;;;;;;;4966562;28;20041;-77
2024/03/07 07:29:51;;;;;;;36.28;14.35;;;;;;;;;;4961909;28;20035;-77
2024/03/07 07:32:17;;;;;;;30.70;11.40;;;;;;;;;;4956054;28;20048;-77
2024/03/07 07:34:42;;;;;;;43.40;18.27;;;;;;;;;;4975804;28;20041;-77
2024/03/07 07:37:09;;;;;;;48.13;18.10;;;;;;;;;;4956309;28;20045;-77
2024/03/07 07:39:35;;;;;;;38.80;15.65;;;;;;;;;;4959034;28;20771;-77
2024/03/07 07:42:00;;;;;;;43.03;15.70;;;;;;;;;;4962458;28;20528;-76
2024/03/07 07:44:26;;;;;;;33.80;13.88;;;;;;;;;;4946541;28;20041;-77
2024/03/07 07:46:52;;;;;;;45.65;17.30;;;;;;;;;;4972206;28;20057;-77
2024/03/07 07:49:17;;;;;;;42.72;17.95;;;;;;;;;;4950119;28;20038;-77
2024/03/07 07:51:42;;;;;;;40.28;16.20;;;;;;;;;;4962754;28;20053;-77
2024/03/07 07:54:09;;;;;;;45.50;16.88;;;;;;;;;;4955263;28;20112;-77
2024/03/07 07:56:35;;;;;;;31.45;13.98;;;;;;;;;;4960327;28;20038;-77
2024/03/07 07:59:01;;;;;;;39.38;14.65;;;;;;;;;;4944691;28;20045;-77
2024/03/07 08:01:27;;;;;;;41.38;15.35;;;;;;;;;;4968921;28;20042;-77
2024/03/07 08:03:52;;;;;;;44.75;16.80;;;;;;;;;;4961231;28;20105;-77
2024/03/07 08:06:18;;;;;;;47.55;19.00;;;;;;;;;;4930535;28;20062;-77
2024/03/07 08:08:43;;;;;;;44.33;16.95;;;;;;;;;;4963779;28;20527;-77
2024/03/07 08:11:10;;;;;;;36.83;15.55;;;;;;;;;;4955430;28;20042;-77
2024/03/07 08:13:36;;;;;;;38.53;15.48;;;;;;;;;;4957377;28;20050;-77
2024/03/07 08:16:01;;;;;;;42.55;16.48;;;;;;;;;;4970397;28;20035;-77
2024/03/07 08:18:27;;;;;;;39.53;17.20;;;;;;;;;;4969511;28;20563;-77
2024/03/07 08:20:52;;;;;;;41.13;17.48;;;;;;;;;;4969439;28;20677;-77
2024/03/07 08:23:17;;;;;;;41.90;18.98;;;;;;;;;;4929392;28;20038;-77
2024/03/07 08:25:43;;;;;;;37.25;15.73;;;;;;;;;;4969661;28;20058;-76
2024/03/07 08:28:08;;;;;;;42.45;16.40;;;;;;;;;;4970763;28;20112;-77
2024/03/07 08:30:34;;;;;;;30.67;14.85;;;;;;;;;;4959415;28;20526;-77
2024/03/07 08:33:02;;;;;;;43.92;19.25;;;;;;;;;;4954402;28;20057;-77
2024/03/07 08:35:29;;;;;;;41.38;18.05;;;;;;;;;;4966210;28;20105;-77
2024/03/07 08:37:57;;;;;;;44.45;22.88;;;;;;;;;;4966022;28;20049;-77
2024/03/07 08:40:32;;;;;;;46.90;24.70;;;;;;;;;;4954521;28;20042;-77
2024/03/07 08:42:58;;;;;;;38.40;15.32;;;;;;;;;;4958182;28;20042;-77
2024/03/07 08:45:25;;;;;;;42.75;16.95;;;;;;;;;;4962510;28;20058;-77
2024/03/07 08:47:55;;;;;;;36.17;16.25;;;;;;;;;;4978345;28;20050;-77
2024/03/07 08:50:22;;;;;;;38.08;17.27;;;;;;;;;;4983835;28;20041;-77
2024/03/07 08:52:49;;;;;;;41.50;18.30;;;;;;;;;;4955730;28;20047;-77
2024/03/07 08:55:16;;;;;;;39.20;17.38;;;;;;;;;;4933474;28;20082;-77
2024/03/07 08:57:44;;;;;;;44.80;23.58;;;;;;;;;;4953641;28;20054;-77
2024/03/07 09:00:11;;;;;;;39.00;16.50;;;;;;;;;;4964382;28;20106;-77
2024/03/07 09:02:38;;;;;;;36.70;16.17;;;;;;;;;;4973136;28;20341;-77
2024/03/07 09:05:05;;;;;;;39.08;18.60;;;;;;;;;;4953795;28;20415;-77
2024/03/07 09:07:30;;;;;;;33.80;14.30;;;;;;;;;;4971627;28;20035;-77
2024/03/07 09:09:56;;;;;;;35.88;15.88;;;;;;;;;;4928107;28;20047;-77
2024/03/07 09:12:21;;;;;;;34.67;14.30;;;;;;;;;;4987915;28;20081;-77
2024/03/07 09:14:47;;;;;;;35.78;15.57;;;;;;;;;;4962765;28;20085;-76
2024/03/07 09:17:12;;;;;;;34.85;16.27;;;;;;;;;;4981574;28;20475;-77
2024/03/07 09:19:38;;;;;;;32.72;14.73;;;;;;;;;;4981741;28;20069;-76
2024/03/07 09:22:04;;;;;;;35.15;15.52;;;;;;;;;;4969513;28;20026;-77
2024/03/07 09:24:30;;;;;;;30.48;14.48;;;;;;;;;;4967257;28;20106;-77
2024/03/07 09:26:56;;;;;;;33.38;14.88;;;;;;;;;;4973686;28;20092;-77
2024/03/07 09:29:22;;;;;;;33.63;15.88;;;;;;;;;;4970863;28;20042;-77
2024/03/07 09:31:51;;;;;;;38.08;16.00;;;;;;;;;;4964941;28;20054;-77
2024/03/07 09:34:20;;;;;;;34.75;20.63;;;;;;;;;;4977950;28;20133;-77
2024/03/07 09:36:46;;;;;;;42.58;16.10;;;;;;;;;;4980319;28;20068;-76
2024/03/07 09:39:14;;;;;;;35.33;17.88;;;;;;;;;;4964407;28;20049;-77
2024/03/07 09:41:40;;;;;;;26.73;12.93;;;;;;;;;;4956863;28;20043;-77
2024/03/07 09:44:11;;;;;;;26.95;12.18;;;;;;;;;;4955043;28;20392;-77
2024/03/07 09:46:38;;;;;;;41.85;21.38;;;;;;;;;;4977306;28;20050;-78
2024/03/07 09:49:05;;;;;;;33.20;16.83;;;;;;;;;;4968593;28;20041;-77
2024/03/07 09:51:32;;;;;;;31.95;13.60;;;;;;;;;;4970470;28;20030;-77
2024/03/07 09:53:59;;;;;;;27.50;12.32;;;;;;;;;;4960877;28;20049;-77
2024/03/07 09:56:26;;;;;;;26.83;13.77;;;;;;;;;;4974223;28;20068;-77
2024/03/07 09:58:56;;;;;;;32.45;19.77;;;;;;;;;;4950901;28;20034;-77
2024/03/07 10:01:27;;;;;;;32.70;17.20;;;;;;;;;;4976617;28;20507;-78
2024/03/07 10:03:58;;;;;;;29.73;13.93;;;;;;;;;;4971677;28;20126;-77
2024/03/07 10:06:23;;;;;;;31.48;16.83;;;;;;;;;;4966966;28;20065;-77
2024/03/07 10:08:50;;;;;;;33.70;15.88;;;;;;;;;;4964552;28;20042;-77
2024/03/07 10:11:16;;;;;;;25.48;11.95;;;;;;;;;;4963331;28;20035;-77
2024/03/07 10:13:41;;;;;;;28.95;14.32;;;;;;;;;;4953512;28;20060;-77
2024/03/07 10:16:07;;;;;;;30.75;14.30;;;;;;;;;;4931217;28;20039;-78
2024/03/07 10:18:41;;;;;;;29.92;14.25;;;;;;;;;;4974277;28;20084;-77
2024/03/07 10:21:07;;;;;;;26.35;16.52;;;;;;;;;;4955284;28;20042;-77
2024/03/07 10:23:33;;;;;;;26.98;14.90;;;;;;;;;;4960527;28;20042;-76
2024/03/07 10:25:59;;;;;;;26.13;13.80;;;;;;;;;;4945662;28;20495;-77
2024/03/07 10:28:26;;;;;;;23.92;11.52;;;;;;;;;;4984506;28;20041;-77
2024/03/07 10:30:52;;;;;;;22.70;10.98;;;;;;;;;;4948688;28;20041;-77
2024/03/07 10:33:17;;;;;;;23.45;11.18;;;;;;;;;;4963883;28;20034;-78
2024/03/07 10:35:46;;;;;;;21.63;11.57;;;;;;;;;;4975163;28;20053;-77
2024/03/07 10:38:12;;;;;;;27.42;16.17;;;;;;;;;;4973072;28;20036;-78
2024/03/07 10:40:40;;;;;;;24.50;12.27;;;;;;;;;;4974910;28;20039;-77
2024/03/07 10:43:09;;;;;;;19.85;9.93;;;;;;;;;;4953802;28;20043;-77
2024/03/07 10:45:42;;;;;;;22.25;11.85;;;;;;;;;;4963943;28;20048;-78
2024/03/07 10:48:11;;;;;;;19.55;9.55;;;;;;;;;;4901559;28;20074;-77
2024/03/07 10:50:47;;;;;;;25.08;12.68;;;;;;;;;;4969386;28;20814;-77
2024/03/07 10:53:15;;;;;;;23.63;14.98;;;;;;;;;;4970701;28;20058;-77
2024/03/07 10:55:53;;;;;;;27.08;14.90;;;;;;;;;;4946066;28;20041;-77
2024/03/07 10:58:41;;;;;;;22.30;11.18;;;;;;;;;;4966456;28;20034;-77
2024/03/07 11:01:11;;;;;;;22.33;10.40;;;;;;;;;;4902613;28;20047;-77
2024/03/07 11:03:36;;;;;;;22.90;11.40;;;;;;;;;;4978304;28;20042;-76
2024/03/07 11:06:06;;;;;;;18.48;9.82;;;;;;;;;;4968663;28;20573;-76
2024/03/07 11:08:35;;;;;;;19.73;11.52;;;;;;;;;;4970045;28;20568;-76
2024/03/07 11:11:01;;;;;;;19.98;10.60;;;;;;;;;;4970944;28;20047;-77
2024/03/07 11:13:27;;;;;;;20.20;11.52;;;;;;;;;;4985615;28;20738;-77
2024/03/07 11:15:57;;;;;;;18.30;10.20;;;;;;;;;;4953496;28;20060;-77
2024/03/07 11:18:24;;;;;;;20.20;11.05;;;;;;;;;;4955363;28;20676;-77
2024/03/07 11:20:49;;;;;;;15.85;8.95;;;;;;;;;;4955229;28;20064;-78
2024/03/07 11:23:38;;;;;;;17.55;10.48;;;;;;;;;;4970874;28;20046;-78
2024/03/07 11:26:11;;;;;;;15.95;8.85;;;;;;;;;;4959084;28;20048;-78
2024/03/07 11:28:39;;;;;;;18.75;10.60;;;;;;;;;;4939037;28;20070;-77
2024/03/07 11:31:14;;;;;;;18.55;9.85;;;;;;;;;;4957671;28;20522;-78
2024/03/07 11:33:40;;;;;;;16.25;10.73;;;;;;;;;;4965947;28;20734;-77
2024/03/07 11:36:13;;;;;;;17.00;8.85;;;;;;;;;;4967345;28;20046;-77
2024/03/07 11:38:48;;;;;;;15.73;9.88;;;;;;;;;;4951478;28;20042;-77
2024/03/07 11:41:14;;;;;;;18.52;10.70;;;;;;;;;;4936371;28;20039;-78
2024/03/07 11:43:42;;;;;;;17.77;10.38;;;;;;;;;;4968300;28;20047;-77
2024/03/07 11:46:11;;;;;;;14.05;8.02;;;;;;;;;;4982554;28;20070;-77
2024/03/07 11:48:41;;;;;;;15.90;8.98;;;;;;;;;;4969936;28;20526;-77
2024/03/07 11:51:10;;;;;;;19.25;12.30;;;;;;;;;;4975122;28;20808;-78
2024/03/07 11:53:36;;;;;;;18.60;11.75;;;;;;;;;;4975744;28;20054;-77
2024/03/07 11:56:09;;;;;;;20.42;12.43;;;;;;;;;;4972816;28;20061;-77
2024/03/07 11:58:40;;;;;;;18.90;10.93;;;;;;;;;;4956196;28;20047;-77
2024/03/07 12:01:06;;;;;;;18.65;12.63;;;;;;;;;;4959716;28;20128;-77
2024/03/07 12:03:34;;;;;;;17.73;10.77;;;;;;;;;;4963528;28;20209;-77
2024/03/07 12:05:59;;;;;;;17.77;8.65;;;;;;;;;;4975377;28;20896;-77
2024/03/07 12:08:26;;;;;;;22.02;9.85;;;;;;;;;;4962566;28;20046;-77
2024/03/07 12:10:55;;;;;;;19.42;10.70;;;;;;;;;;4974858;28;20122;-77
2024/03/07 12:13:22;;;;;;;15.23;8.50;;;;;;;;;;4938161;28;20069;-78
2024/03/07 12:15:52;;;;;;;15.75;7.93;;;;;;;;;;4968100;28;20045;-77
2024/03/07 12:18:20;;;;;;;17.75;11.30;;;;;;;;;;4966830;28;20066;-77
2024/03/07 12:20:55;;;;;;;16.25;8.95;;;;;;;;;;4976757;28;20045;-77
2024/03/07 12:23:24;;;;;;;19.77;12.00;;;;;;;;;;4976658;28;20041;-77
2024/03/07 12:25:59;;;;;;;17.23;9.82;;;;;;;;;;4970840;28;20438;-77
2024/03/07 12:28:25;;;;;;;15.85;9.85;;;;;;;;;;4925062;28;20044;-77
2024/03/07 12:30:56;;;;;;;16.80;9.68;;;;;;;;;;4978952;28;20042;-77
2024/03/07 12:33:25;;;;;;;;;;;;;;;;;;4981791;28;20076;-77
2024/03/07 12:35:52;;;;;;;18.13;8.90;;;;;;;;;;4976845;28;20016;-77
2024/03/07 12:38:18;;;;;;;18.88;10.82;;;;;;;;;;4965879;28;20090;-77
2024/03/07 12:40:43;;;;;;;19.30;11.50;;;;;;;;;;4965343;28;20069;-77
2024/03/07 12:43:21;;;;;;;19.23;10.80;;;;;;;;;;4926058;28;20555;-76
2024/03/07 12:45:58;;;;;;;17.40;10.25;;;;;;;;;;4961394;28;20045;-77
2024/03/07 12:48:23;;;;;;;18.73;10.20;;;;;;;;;;4951393;28;20380;-77
2024/03/07 12:50:53;;;;;;;18.25;9.95;;;;;;;;;;4970124;28;20116;-77
2024/03/07 12:53:22;;;;;;;17.35;9.52;;;;;;;;;;4969610;28;20049;-77
2024/03/07 12:55:48;;;;;;;19.80;10.43;;;;;;;;;;4953752;28;20050;-78
2024/03/07 12:58:15;;;;;;;18.42;10.98;;;;;;;;;;4957825;28;20042;-76
2024/03/07 13:00:41;;;;;;;18.25;11.40;;;;;;;;;;4968076;28;20659;-77
2024/03/07 13:03:08;;;;;;;15.73;9.48;;;;;;;;;;4965629;28;20062;-77
2024/03/07 13:05:34;;;;;;;16.75;11.27;;;;;;;;;;4967753;28;20077;-77
2024/03/07 13:07:59;;;;;;;20.23;10.73;;;;;;;;;;4965879;28;20070;-77
2024/03/07 13:10:24;;;;;;;14.30;8.60;;;;;;;;;;4974689;28;20033;-77
2024/03/07 13:12:51;;;;;;;15.75;8.70;;;;;;;;;;4970056;28;20042;-78
2024/03/07 13:15:22;;;;;;;18.77;11.07;;;;;;;;;;4960640;28;20067;-77
2024/03/07 13:17:49;;;;;;;18.05;11.15;;;;;;;;;;4949268;28;20035;-77
2024/03/07 13:20:14;;;;;;;18.02;10.25;;;;;;;;;;4960150;28;20038;-77
2024/03/07 13:22:46;;;;;;;16.45;9.55;;;;;;;;;;4969060;28;20038;-77
2024/03/07 13:25:22;;;;;;;13.65;9.30;;;;;;;;;;4970744;28;20053;-77
2024/03/07 13:28:02;;;;;;;17.70;12.10;;;;;;;;;;4955775;28;20049;-77
2024/03/07 13:30:28;;;;;;;18.60;11.50;;;;;;;;;;4960560;28;20145;-77
2024/03/07 13:32:58;;;;;;;15.57;10.90;;;;;;;;;;4962325;28;20451;-77
2024/03/07 13:35:27;;;;;;;15.88;10.60;;;;;;;;;;4967996;28;20144;-77
2024/03/07 13:37:56;;;;;;;16.10;9.52;;;;;;;;;;4965667;28;20074;-77
2024/03/07 13:40:24;;;;;;;17.50;10.43;;;;;;;;;;4962013;28;20041;-77
2024/03/07 13:42:53;;;;;;;16.23;10.30;;;;;;;;;;4928600;28;20519;-77
2024/03/07 13:45:21;;;;;;;14.55;8.90;;;;;;;;;;4974688;28;20072;-77
2024/03/07 13:47:48;;;;;;;18.85;10.27;;;;;;;;;;4978820;28;20054;-77
2024/03/07 13:50:15;;;;;;;19.50;12.60;;;;;;;;;;4955190;28;20038;-77
2024/03/07 13:52:43;;;;;;;18.08;11.05;;;;;;;;;;4975410;28;20042;-77
2024/03/07 13:55:11;;;;;;;15.30;9.85;;;;;;;;;;4976523;28;20125;-77
2024/03/07 13:57:45;;;;;;;16.05;11.00;;;;;;;;;;4944236;28;20093;-77
2024/03/07 14:00:47;;;;;;;18.13;12.80;;;;;;;;;;4956827;28;20077;-76
2024/03/07 14:03:16;;;;;;;17.85;10.63;;;;;;;;;;4971923;28;20535;-77
2024/03/07 14:05:56;;;;;;;17.60;10.63;;;;;;;;;;4969177;28;20125;-77
2024/03/07 14:08:27;;;;;;;15.15;10.10;;;;;;;;;;4929207;28;20035;-77
2024/03/07 14:11:12;;;;;;;17.63;9.75;;;;;;;;;;4969345;28;20843;-77
2024/03/07 14:14:20;;;;;;;16.60;9.95;;;;;;;;;;4963960;28;20046;-76
2024/03/07 14:17:13;;;;;;;15.60;9.98;;;;;;;;;;4954072;28;20042;-77
2024/03/07 14:20:26;;;;;;;19.30;12.63;;;;;;;;;;4950627;28;20038;-77
2024/03/07 14:23:18;;;;;;;17.67;9.95;;;;;;;;;;4976541;28;20109;-77
2024/03/07 14:26:34;;;;;;;19.27;9.88;;;;;;;;;;4954820;28;20045;-77